Time;durP1;ratioP1;P1;durP2;ratioP2;P2;SDS_P1;SDS_P2;PMS_P1;PMS_P2;Temp;Humidity;BMP_temperature;BMP_pressure;BME280_temperature;BME280_humidity;BME280_pressure;Samples;Min_cycle;Max_cycle;Signal;HPM_P1;HPM_P2
2022/06/04 00:01:49;;;;;;;6.00;2.55;;;;;;;;;;5150337;27;20051;-79
2022/06/04 00:04:15;;;;;;;7.15;2.60;;;;;;;;;;5133680;27;20055;-79
2022/06/04 00:06:42;;;;;;;6.38;2.80;;;;;;;;;;5139441;27;20138;-79
2022/06/04 00:09:09;;;;;;;7.50;2.67;;;;;;;;;;5157496;27;20131;-79
2022/06/04 00:17:13;;;;;;;6.13;2.80;;;;;;;;;;5153137;27;20092;-78
2022/06/04 00:19:39;;;;;;;6.38;2.90;;;;;;;;;;5131228;27;20058;-78
2022/06/04 00:22:05;;;;;;;4.88;2.85;;;;;;;;;;5143758;27;20053;-79
2022/06/04 00:24:32;;;;;;;5.00;2.67;;;;;;;;;;5148355;27;20054;-78
2022/06/04 00:26:58;;;;;;;9.35;3.00;;;;;;;;;;5152066;27;20493;-79
2022/06/04 00:29:24;;;;;;;5.97;3.20;;;;;;;;;;5133642;27;20057;-79
2022/06/04 00:31:51;;;;;;;6.63;3.08;;;;;;;;;;5167695;27;20083;-79
2022/06/04 00:34:18;;;;;;;6.18;2.88;;;;;;;;;;5135903;27;20051;-79
2022/06/04 00:36:44;;;;;;;7.28;3.30;;;;;;;;;;5155389;27;20051;-78
2022/06/04 00:39:11;;;;;;;6.93;3.40;;;;;;;;;;5146291;27;20094;-78
2022/06/04 00:42:03;;;;;;;8.98;3.10;;;;;;;;;;5129684;27;20130;-79
2022/06/04 00:44:29;;;;;;;7.28;3.13;;;;;;;;;;5134225;27;20125;-79
2022/06/04 00:46:55;;;;;;;5.28;3.05;;;;;;;;;;5143841;27;20057;-79
2022/06/04 00:49:22;;;;;;;5.75;3.22;;;;;;;;;;5138452;27;20083;-78
2022/06/04 00:51:51;;;;;;;6.03;3.10;;;;;;;;;;5144365;27;20061;-78
2022/06/04 00:54:17;;;;;;;6.22;3.30;;;;;;;;;;5134904;27;20146;-78
2022/06/04 00:56:50;;;;;;;7.25;3.58;;;;;;;;;;5137983;27;20043;-78
2022/06/04 00:59:16;;;;;;;6.68;3.33;;;;;;;;;;5165065;27;20162;-78
2022/06/04 01:01:48;;;;;;;8.00;3.47;;;;;;;;;;5148835;27;20136;-79
2022/06/04 01:04:48;;;;;;;9.82;3.90;;;;;;;;;;5129849;27;20083;-79
2022/06/04 01:07:34;;;;;;;6.82;3.60;;;;;;;;;;5146851;27;20055;-79
2022/06/04 01:10:08;;;;;;;6.15;3.20;;;;;;;;;;5154750;27;20050;-79
2022/06/04 01:12:34;;;;;;;7.85;3.70;;;;;;;;;;5163548;27;20050;-79
2022/06/04 01:15:16;;;;;;;6.90;3.60;;;;;;;;;;5146773;27;20141;-79
2022/06/04 01:17:51;;;;;;;6.50;3.70;;;;;;;;;;5152937;27;20138;-79
2022/06/04 01:20:22;;;;;;;6.90;3.90;;;;;;;;;;5134692;27;20061;-79
2022/06/04 01:23:01;;;;;;;8.55;3.90;;;;;;;;;;5160635;27;20468;-79
2022/06/04 01:25:34;;;;;;;5.97;3.72;;;;;;;;;;5137078;27;20532;-79
2022/06/04 01:28:06;;;;;;;11.77;4.35;;;;;;;;;;5138808;27;20054;-79
2022/06/04 01:30:34;;;;;;;5.13;3.58;;;;;;;;;;5143277;27;20126;-79
2022/06/04 01:33:13;;;;;;;8.80;4.20;;;;;;;;;;5140003;27;20081;-79
2022/06/04 01:35:46;;;;;;;7.63;3.65;;;;;;;;;;5149991;27;20088;-79
2022/06/04 01:38:19;;;;;;;10.70;4.10;;;;;;;;;;5157337;27;20903;-79
2022/06/04 01:41:06;;;;;;;7.53;4.50;;;;;;;;;;5147155;27;20081;-79
2022/06/04 01:43:38;;;;;;;8.40;4.68;;;;;;;;;;5154952;27;21172;-78
2022/06/04 01:46:20;;;;;;;7.47;4.60;;;;;;;;;;5147180;27;20981;-79
2022/06/04 01:48:48;;;;;;;8.25;4.70;;;;;;;;;;5130790;27;20051;-79
2022/06/04 01:51:20;;;;;;;7.00;4.10;;;;;;;;;;5158455;27;20123;-78
2022/06/04 01:53:47;;;;;;;9.45;4.82;;;;;;;;;;5150509;27;20058;-78
2022/06/04 01:56:17;;;;;;;9.05;4.22;;;;;;;;;;5147344;27;20516;-78
2022/06/04 01:58:47;;;;;;;8.65;4.47;;;;;;;;;;5139430;27;20158;-78
2022/06/04 02:01:15;;;;;;;7.93;4.60;;;;;;;;;;5135522;27;20126;-79
2022/06/04 02:03:47;;;;;;;8.30;4.70;;;;;;;;;;5137985;27;20083;-79
2022/06/04 02:06:25;;;;;;;8.90;4.88;;;;;;;;;;5146646;27;20541;-79
2022/06/04 02:08:58;;;;;;;8.63;4.60;;;;;;;;;;5139086;27;20053;-78
2022/06/04 02:11:24;;;;;;;12.65;4.80;;;;;;;;;;5136711;27;20129;-79
2022/06/04 02:13:52;;;;;;;7.78;4.25;;;;;;;;;;5139881;27;21174;-79
2022/06/04 02:16:20;;;;;;;9.35;4.68;;;;;;;;;;5133427;27;20054;-78
2022/06/04 02:18:48;;;;;;;8.07;4.53;;;;;;;;;;5133293;27;20058;-78
2022/06/04 02:21:16;;;;;;;9.43;4.57;;;;;;;;;;5139881;27;20051;-79
2022/06/04 02:23:43;;;;;;;7.88;4.72;;;;;;;;;;5143475;27;20042;-79
2022/06/04 02:26:09;;;;;;;8.60;4.40;;;;;;;;;;5150088;27;20046;-79
2022/06/04 02:28:36;;;;;;;9.73;4.88;;;;;;;;;;5136767;27;20055;-79
2022/06/04 02:31:10;;;;;;;7.22;4.43;;;;;;;;;;5146456;27;20047;-79
2022/06/04 02:33:41;;;;;;;6.88;4.60;;;;;;;;;;5160418;27;20065;-79
2022/06/04 02:36:13;;;;;;;8.68;4.50;;;;;;;;;;5156413;27;20104;-78
2022/06/04 02:38:44;;;;;;;8.25;4.68;;;;;;;;;;5138847;27;20137;-79
2022/06/04 02:41:10;;;;;;;;;;;;;;;;;;5137006;27;20049;-78
2022/06/04 02:44:03;;;;;;;9.10;4.68;;;;;;;;;;5143935;27;44681;-78
2022/06/04 02:46:33;;;;;;;10.65;4.45;;;;;;;;;;5134244;27;20142;-79
2022/06/04 02:49:05;;;;;;;8.63;4.78;;;;;;;;;;5136733;27;20144;-78
2022/06/04 02:51:46;;;;;;;7.90;4.57;;;;;;;;;;5148729;27;20513;-78
2022/06/04 02:54:15;;;;;;;8.00;4.43;;;;;;;;;;5146841;27;20046;-79
2022/06/04 02:56:42;;;;;;;10.32;4.25;;;;;;;;;;5141331;27;20065;-78
2022/06/04 02:59:09;;;;;;;8.52;4.50;;;;;;;;;;5155325;27;20055;-78
2022/06/04 03:01:38;;;;;;;7.40;4.22;;;;;;;;;;5155223;27;20053;-78
2022/06/04 03:04:06;;;;;;;9.80;5.03;;;;;;;;;;5153843;27;20112;-78
2022/06/04 03:06:33;;;;;;;7.05;4.55;;;;;;;;;;5148782;27;20061;-79
2022/06/04 03:09:01;;;;;;;9.43;4.72;;;;;;;;;;5157432;27;20061;-78
2022/06/04 03:11:28;;;;;;;9.10;4.57;;;;;;;;;;5145051;27;20047;-79
2022/06/04 03:13:54;;;;;;;9.10;4.03;;;;;;;;;;5162337;27;20049;-79
2022/06/04 03:16:21;;;;;;;9.30;4.82;;;;;;;;;;5156735;27;21003;-78
2022/06/04 03:18:47;;;;;;;8.95;4.75;;;;;;;;;;5136319;27;20051;-79
2022/06/04 03:21:14;;;;;;;8.93;4.60;;;;;;;;;;5155199;27;20065;-79
2022/06/04 03:23:40;;;;;;;9.68;4.38;;;;;;;;;;5141318;27;20072;-79
2022/06/04 03:26:07;;;;;;;8.63;4.22;;;;;;;;;;5163094;27;20075;-78
2022/06/04 03:28:33;;;;;;;11.70;4.53;;;;;;;;;;5138138;27;20248;-79
2022/06/04 03:31:00;;;;;;;10.07;4.53;;;;;;;;;;5157238;27;20047;-79
2022/06/04 03:33:26;;;;;;;9.18;4.60;;;;;;;;;;5147806;27;20059;-78
2022/06/04 03:35:53;;;;;;;10.05;4.40;;;;;;;;;;5138080;27;20059;-78
2022/06/04 03:38:19;;;;;;;9.05;4.43;;;;;;;;;;5138346;27;20094;-78
2022/06/04 03:40:45;;;;;;;11.15;4.40;;;;;;;;;;5145911;27;20096;-79
2022/06/04 03:43:12;;;;;;;7.90;4.55;;;;;;;;;;5133873;27;20065;-78
2022/06/04 03:45:38;;;;;;;12.00;4.47;;;;;;;;;;5145315;27;20058;-79
2022/06/04 03:48:04;;;;;;;8.20;4.47;;;;;;;;;;5151663;27;20148;-78
2022/06/04 03:50:32;;;;;;;10.80;4.70;;;;;;;;;;5133354;27;20059;-79
2022/06/04 03:52:58;;;;;;;8.70;4.88;;;;;;;;;;5133793;27;20051;-79
2022/06/04 03:55:25;;;;;;;9.18;4.38;;;;;;;;;;5129147;27;20058;-79
2022/06/04 03:57:52;;;;;;;10.00;4.90;;;;;;;;;;5154442;27;20115;-79
2022/06/04 04:00:32;;;;;;;8.98;4.63;;;;;;;;;;5148668;27;20051;-79
2022/06/04 04:03:16;;;;;;;8.23;4.60;;;;;;;;;;5135215;27;20061;-79
2022/06/04 04:05:47;;;;;;;8.68;4.85;;;;;;;;;;5158060;27;20058;-79
2022/06/04 04:08:13;;;;;;;9.35;4.70;;;;;;;;;;5160182;27;20503;-79
2022/06/04 04:10:40;;;;;;;10.63;4.93;;;;;;;;;;5132604;27;20604;-79
2022/06/04 04:13:07;;;;;;;8.88;4.85;;;;;;;;;;5148994;27;20051;-79
2022/06/04 04:15:36;;;;;;;9.80;4.88;;;;;;;;;;5149484;27;20126;-79
2022/06/04 04:18:17;;;;;;;10.32;4.80;;;;;;;;;;5139446;27;20051;-79
2022/06/04 04:20:55;;;;;;;12.52;5.07;;;;;;;;;;5140115;27;20866;-79
2022/06/04 04:23:25;;;;;;;9.13;5.03;;;;;;;;;;5136212;27;20055;-77
2022/06/04 04:25:57;;;;;;;10.77;5.38;;;;;;;;;;5152170;27;20058;-77
2022/06/04 04:28:25;;;;;;;10.80;4.60;;;;;;;;;;5131335;27;20046;-77
2022/06/04 04:31:01;;;;;;;9.43;4.88;;;;;;;;;;5126589;27;20055;-77
2022/06/04 04:33:38;;;;;;;10.57;4.72;;;;;;;;;;5147684;27;20142;-77
2022/06/04 04:36:12;;;;;;;10.50;5.38;;;;;;;;;;5142863;27;20043;-77
2022/06/04 04:38:55;;;;;;;11.80;5.50;;;;;;;;;;5127441;27;20051;-77
2022/06/04 04:41:36;;;;;;;9.93;5.65;;;;;;;;;;5149058;27;20055;-77
2022/06/04 04:44:11;;;;;;;12.27;5.00;;;;;;;;;;5152771;27;20043;-77
2022/06/04 04:46:44;;;;;;;10.93;5.38;;;;;;;;;;5133296;27;20230;-77
2022/06/04 04:49:17;;;;;;;12.35;5.18;;;;;;;;;;5129508;27;20054;-77
2022/06/04 04:51:44;;;;;;;12.45;5.15;;;;;;;;;;5142942;27;20051;-77
2022/06/04 04:54:14;;;;;;;12.25;5.53;;;;;;;;;;5157468;27;20050;-77
2022/06/04 04:56:47;;;;;;;9.73;5.15;;;;;;;;;;5154962;27;20042;-77
2022/06/04 04:59:21;;;;;;;9.23;4.60;;;;;;;;;;5150699;27;20054;-77
2022/06/04 05:02:02;;;;;;;10.80;5.30;;;;;;;;;;5157820;27;20051;-77
2022/06/04 05:04:35;;;;;;;12.75;5.28;;;;;;;;;;5159685;27;20531;-77
2022/06/04 05:07:04;;;;;;;11.68;5.30;;;;;;;;;;5156186;27;20077;-77
2022/06/04 05:09:39;;;;;;;13.95;5.32;;;;;;;;;;5129111;27;20051;-79
2022/06/04 05:12:16;;;;;;;11.95;4.95;;;;;;;;;;5161218;27;20137;-77
2022/06/04 05:14:47;;;;;;;9.50;4.75;;;;;;;;;;5157151;27;20065;-77
2022/06/04 05:17:17;;;;;;;9.85;4.80;;;;;;;;;;5155197;27;20051;-76
2022/06/04 05:19:54;;;;;;;14.75;4.93;;;;;;;;;;5144914;27;20047;-78
2022/06/04 05:22:24;;;;;;;9.82;5.13;;;;;;;;;;5132494;27;20043;-77
2022/06/04 05:25:00;;;;;;;11.30;5.25;;;;;;;;;;5146415;27;20075;-78
2022/06/04 05:27:33;;;;;;;13.43;5.15;;;;;;;;;;5162917;27;20055;-78
2022/06/04 05:30:02;;;;;;;18.50;5.15;;;;;;;;;;5158774;27;20051;-78
2022/06/04 05:32:33;;;;;;;11.50;5.43;;;;;;;;;;5145781;27;20528;-78
2022/06/04 05:35:04;;;;;;;9.25;5.20;;;;;;;;;;5138015;27;20054;-78
2022/06/04 05:37:40;;;;;;;10.23;4.90;;;;;;;;;;5145144;27;20042;-77
2022/06/04 05:40:14;;;;;;;11.98;5.28;;;;;;;;;;5146225;27;20123;-77
2022/06/04 05:42:44;;;;;;;13.52;5.78;;;;;;;;;;5134134;27;20055;-77
2022/06/04 05:45:16;;;;;;;10.05;5.15;;;;;;;;;;5148538;27;20105;-77
2022/06/04 05:47:48;;;;;;;12.32;5.57;;;;;;;;;;5141062;27;20051;-78
2022/06/04 05:50:17;;;;;;;11.60;6.00;;;;;;;;;;5135843;27;20493;-77
2022/06/04 05:52:45;;;;;;;12.63;5.72;;;;;;;;;;5162545;27;20054;-77
2022/06/04 05:55:17;;;;;;;11.07;5.53;;;;;;;;;;5166031;27;20109;-77
2022/06/04 05:57:52;;;;;;;11.25;5.43;;;;;;;;;;5156392;27;20353;-77
2022/06/04 06:00:26;;;;;;;;;;;;;;;;;;5134927;27;20058;-77
2022/06/04 06:03:20;;;;;;;8.55;4.80;;;;;;;;;;5159168;27;19946;-78
2022/06/04 06:05:58;;;;;;;11.52;5.15;;;;;;;;;;5127743;27;20590;-77
2022/06/04 06:08:52;;;;;;;10.35;5.50;;;;;;;;;;5151618;27;20051;-77
2022/06/04 06:11:29;;;;;;;12.65;5.45;;;;;;;;;;5154156;27;20061;-77
2022/06/04 06:14:00;;;;;;;14.75;5.50;;;;;;;;;;5143749;27;20138;-78
2022/06/04 06:16:33;;;;;;;13.50;5.25;;;;;;;;;;5138015;27;20055;-77
2022/06/04 06:19:03;;;;;;;10.98;5.00;;;;;;;;;;5158603;27;20104;-77
2022/06/04 06:21:34;;;;;;;11.98;4.85;;;;;;;;;;5137381;27;20561;-77
2022/06/04 06:24:04;;;;;;;8.95;4.40;;;;;;;;;;5157327;27;20054;-77
2022/06/04 06:26:35;;;;;;;11.18;4.55;;;;;;;;;;5159770;27;20510;-78
2022/06/04 06:29:15;;;;;;;10.32;4.35;;;;;;;;;;5132139;27;20429;-78
2022/06/04 06:31:44;;;;;;;11.27;4.85;;;;;;;;;;5131866;27;20070;-78
2022/06/04 06:34:14;;;;;;;10.10;4.28;;;;;;;;;;5134700;27;20531;-78
2022/06/04 06:36:49;;;;;;;10.27;4.47;;;;;;;;;;5150793;27;20083;-77
2022/06/04 06:39:20;;;;;;;8.38;4.25;;;;;;;;;;5144070;27;20165;-78
2022/06/04 06:41:53;;;;;;;7.28;4.32;;;;;;;;;;5133465;27;21171;-78
2022/06/04 06:44:39;;;;;;;10.07;4.18;;;;;;;;;;5151486;27;20592;-78
2022/06/04 06:47:18;;;;;;;9.45;4.93;;;;;;;;;;5156891;27;20066;-78
2022/06/04 06:49:46;;;;;;;8.33;4.60;;;;;;;;;;5132885;27;20531;-79
2022/06/04 06:52:24;;;;;;;8.68;4.43;;;;;;;;;;5125435;27;20054;-78
2022/06/04 06:54:52;;;;;;;8.68;3.90;;;;;;;;;;5127155;27;20505;-78
2022/06/04 06:57:27;;;;;;;10.60;4.03;;;;;;;;;;5163125;27;20808;-78
2022/06/04 07:00:00;;;;;;;9.52;3.65;;;;;;;;;;5155727;27;20059;-77
2022/06/04 07:02:35;;;;;;;;;;;;;;;;;;5130781;27;20529;-79
2022/06/04 07:05:13;;;;;;;9.40;3.53;;;;;;;;;;5138171;27;49282;-78
2022/06/04 07:07:41;;;;;;;7.80;3.72;;;;;;;;;;5151204;27;20055;-78
2022/06/04 07:10:11;;;;;;;10.98;4.40;;;;;;;;;;5141106;27;20606;-78
2022/06/04 07:12:44;;;;;;;8.60;4.20;;;;;;;;;;5153766;27;20065;-78
2022/06/04 07:15:24;;;;;;;7.72;3.33;;;;;;;;;;5130414;27;20062;-78
2022/06/04 07:17:54;;;;;;;7.30;3.83;;;;;;;;;;5135593;27;20682;-78
2022/06/04 07:20:31;;;;;;;9.50;3.67;;;;;;;;;;5158995;27;20047;-78
2022/06/04 07:23:03;;;;;;;7.45;3.50;;;;;;;;;;5137722;27;20046;-79
2022/06/04 07:25:32;;;;;;;8.55;3.42;;;;;;;;;;5158321;27;20134;-79
2022/06/04 07:28:07;;;;;;;7.95;3.35;;;;;;;;;;5142661;27;20561;-79
2022/06/04 07:30:40;;;;;;;7.32;3.30;;;;;;;;;;5132970;27;20533;-79
2022/06/04 07:33:11;;;;;;;6.75;3.83;;;;;;;;;;5143619;27;20050;-79
2022/06/04 07:35:46;;;;;;;7.45;3.40;;;;;;;;;;5142648;27;20509;-79
2022/06/04 07:38:16;;;;;;;7.35;3.38;;;;;;;;;;5144680;27;20571;-78
2022/06/04 07:40:44;;;;;;;7.72;3.50;;;;;;;;;;5144962;27;20567;-78
2022/06/04 07:43:14;;;;;;;5.20;2.95;;;;;;;;;;5144906;27;20060;-78
2022/06/04 07:45:45;;;;;;;8.32;3.45;;;;;;;;;;5147222;27;20058;-78
2022/06/04 07:48:21;;;;;;;7.70;3.80;;;;;;;;;;5168208;27;20047;-78
2022/06/04 07:50:56;;;;;;;10.02;3.65;;;;;;;;;;5139872;27;20069;-78
2022/06/04 07:53:29;;;;;;;8.25;3.60;;;;;;;;;;5162136;27;20035;-78
2022/06/04 07:56:09;;;;;;;7.25;3.17;;;;;;;;;;5147077;27;20528;-79
2022/06/04 07:58:43;;;;;;;8.43;3.50;;;;;;;;;;5145968;27;20050;-78
2022/06/04 08:01:22;;;;;;;7.45;3.33;;;;;;;;;;5141868;27;20329;-79
2022/06/04 08:03:54;;;;;;;7.25;3.22;;;;;;;;;;5135077;27;20501;-79
2022/06/04 08:06:24;;;;;;;;;;;;;;;;;;5136646;27;20061;-79
2022/06/04 08:09:02;;;;;;;7.97;3.22;;;;;;;;;;5139453;27;44088;-79
2022/06/04 08:11:42;;;;;;;8.35;3.42;;;;;;;;;;5141215;27;20051;-79
2022/06/04 08:14:21;;;;;;;7.80;3.15;;;;;;;;;;5158482;27;20508;-79
2022/06/04 08:17:00;;;;;;;9.68;2.90;;;;;;;;;;5147710;27;20574;-79
2022/06/04 08:19:40;;;;;;;13.05;3.30;;;;;;;;;;5160979;27;20651;-78
2022/06/04 08:22:19;;;;;;;8.20;2.90;;;;;;;;;;5143222;27;20057;-78
2022/06/04 08:24:47;;;;;;;7.75;3.25;;;;;;;;;;5137127;27;20046;-80
2022/06/04 08:27:15;;;;;;;8.68;3.47;;;;;;;;;;5140744;27;20047;-80
2022/06/04 08:29:45;;;;;;;6.82;3.60;;;;;;;;;;5138279;27;20949;-81
2022/06/04 08:32:26;;;;;;;10.50;3.42;;;;;;;;;;5162057;27;20043;-81
2022/06/04 08:34:55;;;;;;;8.02;3.38;;;;;;;;;;5158489;27;20047;-79
2022/06/04 08:37:25;;;;;;;8.57;3.50;;;;;;;;;;5148290;27;20437;-80
2022/06/04 08:40:03;;;;;;;6.85;3.30;;;;;;;;;;5148554;27;20888;-79
2022/06/04 08:43:10;;;;;;;9.35;3.50;;;;;;;;;;5156594;27;20866;-79
2022/06/04 08:45:47;;;;;;;9.15;3.20;;;;;;;;;;5063792;28;20069;-79
2022/06/04 08:48:32;;;;;;;13.13;3.50;;;;;;;;;;5126840;27;20154;-79
2022/06/04 08:50:59;;;;;;;7.45;3.38;;;;;;;;;;5141963;27;20043;-78
2022/06/04 08:53:30;;;;;;;9.63;3.75;;;;;;;;;;5164148;27;20061;-79
2022/06/04 08:59:21;;;;;;;9.57;3.53;;;;;;;;;;5154963;27;20059;-79
2022/06/04 09:02:11;;;;;;;7.95;3.50;;;;;;;;;;5149714;27;20059;-79
2022/06/04 09:04:38;;;;;;;;;;;;;;;;;;5146600;27;20042;-79
2022/06/04 09:07:08;;;;;;;6.75;3.33;;;;;;;;;;5162269;27;44933;-79
2022/06/04 09:09:41;;;;;;;9.35;3.30;;;;;;;;;;5148595;27;20062;-80
2022/06/04 09:12:30;;;;;;;6.93;3.50;;;;;;;;;;5161894;27;20805;-79
2022/06/04 09:15:06;;;;;;;7.50;3.30;;;;;;;;;;5162164;27;20051;-79
2022/06/04 09:17:44;;;;;;;6.80;3.33;;;;;;;;;;5168295;27;20051;-79
2022/06/04 09:20:24;;;;;;;6.88;3.50;;;;;;;;;;5153988;27;20517;-79
2022/06/04 09:22:55;;;;;;;6.80;3.28;;;;;;;;;;5141602;27;20055;-79
2022/06/04 09:25:25;;;;;;;7.47;3.50;;;;;;;;;;5137531;27;20050;-79
2022/06/04 09:28:09;;;;;;;6.88;3.72;;;;;;;;;;5139206;27;20051;-80
2022/06/04 09:30:45;;;;;;;8.18;3.67;;;;;;;;;;5154545;27;20053;-78
2022/06/04 09:33:32;;;;;;;7.03;3.35;;;;;;;;;;5155615;27;20055;-77
2022/06/04 09:36:15;;;;;;;8.50;3.40;;;;;;;;;;5145375;27;20054;-75
2022/06/04 09:38:51;;;;;;;9.07;3.72;;;;;;;;;;5164665;27;20077;-75
2022/06/04 09:41:23;;;;;;;7.43;4.00;;;;;;;;;;5162220;27;20059;-75
2022/06/04 09:44:14;;;;;;;8.23;3.55;;;;;;;;;;5150931;27;20077;-75
2022/06/04 09:46:51;;;;;;;6.68;3.30;;;;;;;;;;5133721;27;20054;-75
2022/06/04 09:49:39;;;;;;;7.07;3.67;;;;;;;;;;5161335;27;20055;-75
2022/06/04 09:52:10;;;;;;;;;;;;;;;;;;5136867;27;20074;-76
2022/06/04 09:54:42;;;;;;;8.65;3.25;;;;;;;;;;5132146;27;43960;-76
2022/06/04 09:57:24;;;;;;;8.65;3.92;;;;;;;;;;5154792;27;20889;-76
2022/06/04 10:00:02;;;;;;;7.60;3.75;;;;;;;;;;5142037;27;20053;-76
2022/06/04 10:02:39;;;;;;;9.68;3.92;;;;;;;;;;5140043;27;20126;-76
2022/06/04 10:05:18;;;;;;;7.95;3.50;;;;;;;;;;5128381;27;20157;-75
2022/06/04 10:07:45;;;;;;;7.60;3.28;;;;;;;;;;5160426;27;20062;-75
2022/06/04 10:10:24;;;;;;;8.55;3.45;;;;;;;;;;5137659;27;20051;-76
2022/06/04 10:15:48;;;;;;;7.50;3.60;;;;;;;;;;5149812;27;20046;-76
2022/06/04 10:18:34;;;;;;;6.53;3.20;;;;;;;;;;5145510;27;20148;-76
2022/06/04 10:21:06;;;;;;;7.90;3.53;;;;;;;;;;5150027;27;20555;-77
2022/06/04 10:23:42;;;;;;;6.68;3.72;;;;;;;;;;5152389;27;20050;-77
2022/06/04 10:26:22;;;;;;;6.97;3.35;;;;;;;;;;5150237;27;20062;-77
2022/06/04 10:29:09;;;;;;;7.00;3.47;;;;;;;;;;5146442;27;20063;-78
2022/06/04 10:31:42;;;;;;;7.28;3.72;;;;;;;;;;5152262;27;20058;-77
2022/06/04 10:34:14;;;;;;;7.53;4.18;;;;;;;;;;5147786;27;20051;-77
2022/06/04 10:37:08;;;;;;;7.38;3.58;;;;;;;;;;5166769;27;20061;-77
2022/06/04 10:40:03;;;;;;;7.72;3.55;;;;;;;;;;5166696;27;20112;-77
2022/06/04 10:42:58;;;;;;;7.75;3.47;;;;;;;;;;5102662;27;20143;-77
2022/06/04 10:45:40;;;;;;;6.03;3.08;;;;;;;;;;5153378;27;20035;-77
2022/06/04 10:48:29;;;;;;;7.25;3.33;;;;;;;;;;5142412;27;20057;-77
2022/06/04 10:51:28;;;;;;;7.53;3.88;;;;;;;;;;5136609;27;20376;-77
2022/06/04 10:54:16;;;;;;;6.30;3.90;;;;;;;;;;5140139;27;20266;-77
2022/06/04 10:57:05;;;;;;;10.55;4.05;;;;;;;;;;5169055;27;20051;-77
2022/06/04 10:59:40;;;;;;;9.10;3.65;;;;;;;;;;5138729;27;20050;-77
2022/06/04 11:02:20;;;;;;;8.95;3.53;;;;;;;;;;5137064;27;20104;-79
2022/06/04 11:05:05;;;;;;;7.05;3.35;;;;;;;;;;5146704;27;20084;-78
2022/06/04 11:07:50;;;;;;;7.38;3.85;;;;;;;;;;5142980;27;20131;-76
2022/06/04 11:10:24;;;;;;;10.00;3.80;;;;;;;;;;5140787;27;20051;-77
2022/06/04 11:13:02;;;;;;;9.20;4.00;;;;;;;;;;5152497;27;20084;-77
2022/06/04 11:15:34;;;;;;;6.63;3.47;;;;;;;;;;5146102;27;20441;-77
2022/06/04 11:18:15;;;;;;;5.68;3.38;;;;;;;;;;5154531;27;20062;-77
2022/06/04 11:20:53;;;;;;;7.03;3.40;;;;;;;;;;5127849;27;20047;-77
2022/06/04 11:23:28;;;;;;;7.07;3.63;;;;;;;;;;5159918;27;20492;-77
2022/06/04 11:26:23;;;;;;;6.93;3.20;;;;;;;;;;5133121;27;20083;-77
2022/06/04 11:28:59;;;;;;;6.97;3.25;;;;;;;;;;5155411;27;20051;-77
2022/06/04 11:31:33;;;;;;;9.10;3.58;;;;;;;;;;5136165;27;20923;-77
2022/06/04 11:34:20;;;;;;;8.45;3.55;;;;;;;;;;5148855;27;20053;-77
2022/06/04 11:36:56;;;;;;;8.02;3.30;;;;;;;;;;5145234;27;20050;-77
2022/06/04 11:40:00;;;;;;;6.38;3.38;;;;;;;;;;5133361;27;20097;-77
2022/06/04 11:42:48;;;;;;;6.15;3.40;;;;;;;;;;5054299;28;20510;-77
2022/06/04 11:45:37;;;;;;;8.45;3.78;;;;;;;;;;5144957;27;20602;-77
2022/06/04 11:48:30;;;;;;;7.30;3.53;;;;;;;;;;5140928;27;20062;-77
2022/06/04 11:51:07;;;;;;;5.95;3.15;;;;;;;;;;5137489;27;20051;-77
2022/06/04 11:53:41;;;;;;;6.05;3.20;;;;;;;;;;5153940;27;20059;-77
2022/06/04 11:56:16;;;;;;;6.93;3.60;;;;;;;;;;5137767;27;20035;-77
2022/06/04 11:58:52;;;;;;;6.85;3.17;;;;;;;;;;5140454;27;20055;-78
2022/06/04 12:01:30;;;;;;;5.72;3.55;;;;;;;;;;5142324;27;20137;-77
2022/06/04 12:03:59;;;;;;;;;;;;;;;;;;5161090;27;20051;-78
2022/06/04 12:06:37;;;;;;;8.15;3.35;;;;;;;;;;5135734;27;42324;-77
2022/06/04 12:09:13;;;;;;;7.47;2.88;;;;;;;;;;5140855;27;20161;-78
2022/06/04 12:12:11;;;;;;;6.57;3.10;;;;;;;;;;5134134;27;20055;-77
2022/06/04 12:14:46;;;;;;;9.80;3.85;;;;;;;;;;5131740;27;20058;-77
2022/06/04 12:17:22;;;;;;;9.77;3.55;;;;;;;;;;5148319;27;20133;-78
2022/06/04 12:26:28;;;;;;;5.47;3.10;;;;;;;;;;5160777;27;20062;-78
2022/06/04 12:28:55;;;;;;;8.57;3.70;;;;;;;;;;5164752;27;20047;-78
2022/06/04 12:31:39;;;;;;;8.38;3.60;;;;;;;;;;5135789;27;20052;-78
2022/06/04 12:34:30;;;;;;;7.68;3.97;;;;;;;;;;5139883;27;20058;-78
2022/06/04 12:37:00;;;;;;;6.13;3.72;;;;;;;;;;5156745;27;20085;-78
2022/06/04 12:39:30;;;;;;;5.18;3.08;;;;;;;;;;5129405;27;20070;-78
2022/06/04 12:42:02;;;;;;;7.87;3.20;;;;;;;;;;5159240;27;20065;-78
2022/06/04 12:44:34;;;;;;;8.73;4.13;;;;;;;;;;5135797;27;20095;-78
2022/06/04 12:47:27;;;;;;;7.93;3.58;;;;;;;;;;5151383;27;20148;-78
2022/06/04 12:50:03;;;;;;;6.10;3.40;;;;;;;;;;5150355;27;20043;-78
2022/06/04 12:52:37;;;;;;;7.35;3.95;;;;;;;;;;5131529;27;20642;-77
2022/06/04 12:55:30;;;;;;;6.95;3.55;;;;;;;;;;5155785;27;20521;-77
2022/06/04 12:58:09;;;;;;;7.75;3.67;;;;;;;;;;5147574;27;20078;-77
2022/06/04 13:00:39;;;;;;;6.28;3.65;;;;;;;;;;5136022;27;20067;-77
2022/06/04 13:03:27;;;;;;;5.63;3.63;;;;;;;;;;5134624;27;20514;-77
2022/06/04 13:06:20;;;;;;;7.38;4.20;;;;;;;;;;5145569;27;20550;-77
2022/06/04 13:09:20;;;;;;;6.75;4.03;;;;;;;;;;5158531;27;20055;-77
2022/06/04 13:11:52;;;;;;;5.78;3.50;;;;;;;;;;5160961;27;20133;-77
2022/06/04 13:14:36;;;;;;;7.43;3.85;;;;;;;;;;5148151;27;20256;-77
2022/06/04 13:17:21;;;;;;;7.82;3.67;;;;;;;;;;5135625;27;20056;-77
2022/06/04 13:19:59;;;;;;;8.23;4.05;;;;;;;;;;5137626;27;20051;-78
2022/06/04 13:23:05;;;;;;;6.72;3.92;;;;;;;;;;5153577;27;20055;-77
2022/06/04 13:25:44;;;;;;;8.38;3.63;;;;;;;;;;5147370;27;20129;-77
2022/06/04 13:28:34;;;;;;;8.15;4.10;;;;;;;;;;5127204;27;20155;-77
2022/06/04 13:31:24;;;;;;;6.27;3.47;;;;;;;;;;5141729;27;20051;-77
2022/06/04 13:33:55;;;;;;;12.48;3.95;;;;;;;;;;5162897;27;20340;-77
2022/06/04 13:36:27;;;;;;;5.82;3.55;;;;;;;;;;5164685;27;20050;-77
2022/06/04 13:39:12;;;;;;;9.20;3.65;;;;;;;;;;5161844;27;20050;-77
2022/06/04 13:42:05;;;;;;;8.38;3.45;;;;;;;;;;5157122;27;20062;-77
2022/06/04 13:44:42;;;;;;;7.25;3.42;;;;;;;;;;5157536;27;20061;-77
2022/06/04 13:47:20;;;;;;;8.40;3.35;;;;;;;;;;5132968;27;20047;-77
2022/06/04 13:49:51;;;;;;;14.40;3.70;;;;;;;;;;5125968;27;20722;-77
2022/06/04 13:52:22;;;;;;;5.88;3.33;;;;;;;;;;5144310;27;20058;-77
2022/06/04 13:55:01;;;;;;;6.57;3.22;;;;;;;;;;5138089;27;20073;-77
2022/06/04 13:57:44;;;;;;;4.90;2.90;;;;;;;;;;5150838;27;20065;-77
2022/06/04 14:00:19;;;;;;;6.15;3.58;;;;;;;;;;5166877;27;20162;-77
2022/06/04 14:02:48;;;;;;;7.97;3.58;;;;;;;;;;5128120;27;20058;-77
2022/06/04 14:05:54;;;;;;;10.20;3.90;;;;;;;;;;5131619;27;20054;-77
2022/06/04 14:08:30;;;;;;;9.43;3.60;;;;;;;;;;5142670;27;20056;-77
2022/06/04 14:11:01;;;;;;;7.13;3.75;;;;;;;;;;5142068;27;20059;-77
2022/06/04 14:13:35;;;;;;;8.52;3.17;;;;;;;;;;5145722;27;20134;-77
2022/06/04 14:16:13;;;;;;;8.23;3.30;;;;;;;;;;5142098;27;20047;-77
2022/06/04 14:19:01;;;;;;;5.85;3.30;;;;;;;;;;5137432;27;20054;-77
2022/06/04 14:21:57;;;;;;;9.50;3.67;;;;;;;;;;5147425;27;20529;-77
2022/06/04 14:24:41;;;;;;;7.20;4.00;;;;;;;;;;5134092;27;20046;-77
2022/06/04 14:27:31;;;;;;;6.78;3.67;;;;;;;;;;5140466;27;20138;-77
2022/06/04 14:30:20;;;;;;;8.30;3.70;;;;;;;;;;5150038;27;20046;-77
2022/06/04 14:32:52;;;;;;;10.87;3.80;;;;;;;;;;5127447;27;20050;-77
2022/06/04 14:35:41;;;;;;;7.95;3.95;;;;;;;;;;5131528;27;20055;-77
2022/06/04 14:38:16;;;;;;;6.10;3.63;;;;;;;;;;5139712;27;20046;-77
2022/06/04 14:40:58;;;;;;;6.07;3.47;;;;;;;;;;5141579;27;20056;-77
2022/06/04 14:43:44;;;;;;;6.28;3.63;;;;;;;;;;5139619;27;20084;-77
2022/06/04 14:46:30;;;;;;;6.63;3.97;;;;;;;;;;5144628;27;20050;-77
2022/06/04 14:49:19;;;;;;;10.10;3.80;;;;;;;;;;5142014;27;20121;-77
2022/06/04 14:52:02;;;;;;;5.93;3.45;;;;;;;;;;5159006;27;20929;-77
2022/06/04 14:54:36;;;;;;;6.10;3.40;;;;;;;;;;5143760;27;20051;-77
2022/06/04 14:57:29;;;;;;;8.10;4.30;;;;;;;;;;5139895;27;20097;-77
2022/06/04 15:00:12;;;;;;;7.03;3.95;;;;;;;;;;5139050;27;20054;-77
2022/06/04 15:02:45;;;;;;;8.90;3.85;;;;;;;;;;5135681;27;20062;-77
2022/06/04 15:05:30;;;;;;;8.02;4.20;;;;;;;;;;5137796;27;20063;-77
2022/06/04 15:08:18;;;;;;;5.30;3.60;;;;;;;;;;5152291;27;20051;-77
2022/06/04 15:11:04;;;;;;;5.78;4.03;;;;;;;;;;5143518;27;20058;-77
2022/06/04 15:13:58;;;;;;;11.90;3.83;;;;;;;;;;5134052;27;20178;-77
2022/06/04 15:16:47;;;;;;;7.68;3.88;;;;;;;;;;5128095;27;20142;-77
2022/06/04 15:19:44;;;;;;;5.85;3.83;;;;;;;;;;5119848;27;20046;-77
2022/06/04 15:22:24;;;;;;;7.40;3.95;;;;;;;;;;5127797;27;20104;-77
2022/06/04 15:24:55;;;;;;;7.30;3.95;;;;;;;;;;5138332;27;20051;-77
2022/06/04 15:27:40;;;;;;;7.32;4.05;;;;;;;;;;5138969;27;20113;-77
2022/06/04 15:36:22;;;;;;;6.45;3.78;;;;;;;;;;5155469;27;20126;-77
2022/06/04 15:39:02;;;;;;;5.85;3.40;;;;;;;;;;5163565;27;20147;-77
2022/06/04 15:41:33;;;;;;;8.65;3.80;;;;;;;;;;5130423;27;20054;-77
2022/06/04 15:44:15;;;;;;;7.43;3.35;;;;;;;;;;5166946;27;20065;-77
2022/06/04 15:46:54;;;;;;;7.68;3.70;;;;;;;;;;5137980;27;20525;-77
2022/06/04 15:55:47;;;;;;;6.70;3.50;;;;;;;;;;5158799;27;20070;-77
2022/06/04 15:58:36;;;;;;;6.50;3.75;;;;;;;;;;5139417;27;20051;-77
2022/06/04 16:01:31;;;;;;;9.07;3.38;;;;;;;;;;5137743;27;20043;-77
2022/06/04 16:04:10;;;;;;;7.05;3.60;;;;;;;;;;5107756;27;20103;-77
2022/06/04 16:06:59;;;;;;;4.78;3.25;;;;;;;;;;5143817;27;20107;-77